createdAt,value
2023-01-12T00:01:37.083Z,7.90
2023-01-12T00:04:03.856Z,8.00
2023-01-12T00:06:32.260Z,8.10
2023-01-12T00:08:59.049Z,8.10
2023-01-12T00:11:26.183Z,8.10
2023-01-12T00:13:52.882Z,8.10
2023-01-12T00:16:37.602Z,8.20
2023-01-12T00:19:09.771Z,8.20
2023-01-12T00:21:52.464Z,8.20
2023-01-12T00:24:19.407Z,8.30
2023-01-12T00:26:46.486Z,8.30
2023-01-12T00:29:13.529Z,8.20
2023-01-12T00:31:40.355Z,8.20
2023-01-12T00:34:07.039Z,8.30
2023-01-12T00:36:33.932Z,8.30
2023-01-12T00:39:00.649Z,8.30
2023-01-12T00:41:59.651Z,8.40
2023-01-12T00:44:44.615Z,8.30
2023-01-12T00:47:11.601Z,8.40
2023-01-12T00:49:38.860Z,8.40
2023-01-12T00:52:06.366Z,8.40
2023-01-12T00:54:33.577Z,8.50
2023-01-12T00:57:00.658Z,8.40
2023-01-12T00:59:27.816Z,8.50
2023-01-12T01:01:54.817Z,8.50
2023-01-12T01:04:31.161Z,8.50
2023-01-12T01:07:09.235Z,8.50
2023-01-12T01:09:49.920Z,8.50
2023-01-12T01:12:17.499Z,8.50
2023-01-12T01:14:44.206Z,8.60
2023-01-12T01:17:10.900Z,8.60
2023-01-12T01:19:37.794Z,8.70
2023-01-12T01:22:04.580Z,8.70
2023-01-12T01:24:31.715Z,8.70
2023-01-12T01:26:58.528Z,8.70
2023-01-12T01:29:25.287Z,8.60
2023-01-12T01:31:54.366Z,8.60
2023-01-12T01:34:21.196Z,8.70
2023-01-12T01:36:49.489Z,8.70
2023-01-12T01:39:16.352Z,8.70
2023-01-12T01:41:43.716Z,8.70
2023-01-12T01:44:29.177Z,8.70
2023-01-12T01:47:01.826Z,8.70
2023-01-12T01:49:31.410Z,8.70
2023-01-12T01:52:09.357Z,8.70
2023-01-12T01:54:51.287Z,8.70
2023-01-12T01:57:18.348Z,8.80
2023-01-12T01:59:53.889Z,8.90
2023-01-12T02:02:21.033Z,8.80
2023-01-12T02:04:47.985Z,8.80
2023-01-12T02:07:14.769Z,8.90
2023-01-12T02:09:41.571Z,8.90
2023-01-12T02:12:27.153Z,8.90
2023-01-12T02:15:13.970Z,8.90
2023-01-12T02:17:40.878Z,8.90
2023-01-12T02:20:26.641Z,8.90
2023-01-12T02:22:56.491Z,8.80
2023-01-12T02:25:37.040Z,8.90
2023-01-12T02:28:22.743Z,9.00
2023-01-12T02:31:07.384Z,8.90
2023-01-12T02:33:40.557Z,8.90
2023-01-12T02:36:16.599Z,8.90
2023-01-12T02:38:48.147Z,8.90
2023-01-12T02:41:42.013Z,8.80
2023-01-12T02:44:13.101Z,8.80
2023-01-12T02:46:41.848Z,8.70
2023-01-12T02:49:10.410Z,8.70
2023-01-12T02:51:40.311Z,8.70
2023-01-12T02:54:10.941Z,8.80
2023-01-12T02:56:43.596Z,8.80
2023-01-12T02:59:16.728Z,8.70
2023-01-12T03:01:45.011Z,8.70
2023-01-12T03:04:12.069Z,8.70
2023-01-12T03:06:43.348Z,8.70
2023-01-12T03:09:10.404Z,8.80
2023-01-12T03:11:38.997Z,8.80
2023-01-12T03:14:06.794Z,8.80
2023-01-12T03:16:35.705Z,8.80
2023-01-12T03:19:09.407Z,8.80
2023-01-12T03:21:37.545Z,8.90
2023-01-12T03:24:06.425Z,8.90
2023-01-12T03:26:34.629Z,9.00
2023-01-12T03:29:15.253Z,9.00
2023-01-12T03:31:42.473Z,9.00
2023-01-12T03:34:09.573Z,9.10
2023-01-12T03:36:54.643Z,9.10
2023-01-12T03:39:27.567Z,9.10
2023-01-12T03:42:00.425Z,9.10
2023-01-12T03:44:30.711Z,9.10
2023-01-12T03:47:06.316Z,9.20
2023-01-12T03:49:36.262Z,9.20
2023-01-12T03:52:04.436Z,9.20
2023-01-12T03:54:34.657Z,9.20
2023-01-12T03:57:02.268Z,9.20
2023-01-12T03:59:29.052Z,9.20
2023-01-12T04:01:56.043Z,9.20
2023-01-12T04:04:23.124Z,9.20
2023-01-12T04:06:50.085Z,9.10
2023-01-12T04:09:16.923Z,9.20
2023-01-12T04:12:02.471Z,9.10
2023-01-12T04:14:29.169Z,9.20
2023-01-12T04:16:56.044Z,9.20
2023-01-12T04:19:22.722Z,9.20
2023-01-12T04:22:08.244Z,9.20
2023-01-12T04:24:34.965Z,9.20
2023-01-12T04:27:01.687Z,9.20
2023-01-12T04:29:28.540Z,9.20
2023-01-12T04:31:55.419Z,9.20
2023-01-12T04:34:22.229Z,9.20
2023-01-12T04:36:49.474Z,9.20
2023-01-12T04:39:16.214Z,9.20
2023-01-12T04:41:43.061Z,9.20
2023-01-12T04:44:09.931Z,9.20
2023-01-12T04:46:36.753Z,9.30
2023-01-12T04:49:03.490Z,9.30
2023-01-12T04:51:32.700Z,9.20
2023-01-12T04:54:00.010Z,9.30
2023-01-12T04:56:26.682Z,9.20
2023-01-12T04:58:59.632Z,9.30
2023-01-12T05:01:27.530Z,9.20
2023-01-12T05:04:00.446Z,9.20
2023-01-12T05:06:28.028Z,9.20
2023-01-12T05:09:13.510Z,9.20
2023-01-12T05:11:40.287Z,9.20
2023-01-12T05:14:07.440Z,9.30
2023-01-12T05:16:34.388Z,9.30
2023-01-12T05:19:01.183Z,9.20
2023-01-12T05:21:28.106Z,9.30
2023-01-12T05:23:55.023Z,9.30
2023-01-12T05:26:21.862Z,9.30
2023-01-12T05:28:49.974Z,9.30
2023-01-12T05:31:17.115Z,9.30
2023-01-12T05:36:26.496Z,9.40
2023-01-12T05:38:53.457Z,9.30
2023-01-12T05:41:22.975Z,9.30
2023-01-12T05:43:52.878Z,9.20
2023-01-12T05:46:19.775Z,9.20
2023-01-12T05:48:46.936Z,9.20
2023-01-12T05:51:14.425Z,9.20
2023-01-12T05:53:42.176Z,9.20
2023-01-12T05:56:16.722Z,9.20
2023-01-12T05:58:46.388Z,9.20
2023-01-12T06:01:15.885Z,9.30
2023-01-12T06:03:56.051Z,9.30
2023-01-12T06:06:33.707Z,9.20
2023-01-12T06:09:13.524Z,9.20
2023-01-12T06:12:01.976Z,9.30
2023-01-12T06:17:49.269Z,9.30
2023-01-12T06:20:17.429Z,9.40
2023-01-12T06:22:44.756Z,9.30
2023-01-12T06:25:11.913Z,9.40
2023-01-12T06:27:38.673Z,9.30
2023-01-12T06:30:06.461Z,9.30
2023-01-12T06:32:33.691Z,9.30
2023-01-12T06:35:07.158Z,9.30
2023-01-12T06:37:40.998Z,9.40
2023-01-12T06:40:11.277Z,9.40
2023-01-12T06:42:42.167Z,9.30
2023-01-12T06:45:09.369Z,9.40
2023-01-12T06:47:44.031Z,9.30
2023-01-12T06:50:11.149Z,9.30
2023-01-12T06:52:39.274Z,9.40
2023-01-12T06:55:06.111Z,9.40
2023-01-12T06:57:33.004Z,9.40
2023-01-12T06:59:59.769Z,9.40
2023-01-12T07:02:26.827Z,9.40
2023-01-12T07:04:53.686Z,9.40
2023-01-12T07:07:20.492Z,9.50
2023-01-12T07:09:47.276Z,9.50
2023-01-12T07:12:14.094Z,9.50
2023-01-12T07:14:41.222Z,9.50
2023-01-12T07:17:08.431Z,9.50
2023-01-12T07:19:35.937Z,9.60
2023-01-12T07:22:03.063Z,9.60
2023-01-12T07:24:30.289Z,9.60
2023-01-12T07:26:58.578Z,9.60
2023-01-12T07:29:25.550Z,9.70
2023-01-12T07:31:52.274Z,9.60
2023-01-12T07:34:19.125Z,9.60
2023-01-12T07:36:48.317Z,9.60
2023-01-12T07:39:15.145Z,9.70
2023-01-12T07:42:00.745Z,9.70
2023-01-12T07:44:27.465Z,9.80
2023-01-12T07:46:54.415Z,9.70
2023-01-12T07:49:21.160Z,9.70
2023-01-12T07:51:47.950Z,9.60
2023-01-12T07:54:14.651Z,9.50
2023-01-12T07:56:44.075Z,9.50
2023-01-12T07:59:11.067Z,9.40
2023-01-12T08:01:39.048Z,9.40
2023-01-12T08:04:05.901Z,9.30
2023-01-12T08:06:33.657Z,9.20
2023-01-12T08:09:00.847Z,9.10
2023-01-12T08:11:27.626Z,9.00
2023-01-12T08:13:55.626Z,9.00
2023-01-12T08:16:25.402Z,8.80
2023-01-12T08:18:54.351Z,8.70
2023-01-12T08:21:24.208Z,8.60
2023-01-12T08:23:53.777Z,8.60
2023-01-12T08:26:24.006Z,8.60
2023-01-12T08:28:52.974Z,8.60
2023-01-12T08:31:20.715Z,8.70
2023-01-12T08:33:47.383Z,8.70
2023-01-12T08:36:15.549Z,8.70
2023-01-12T08:38:42.460Z,8.70
2023-01-12T08:41:27.983Z,8.80
2023-01-12T08:44:05.914Z,8.80
2023-01-12T08:46:37.228Z,9.00
2023-01-12T08:49:04.875Z,9.00
2023-01-12T08:51:31.681Z,9.10
2023-01-12T08:53:58.298Z,9.10
2023-01-12T08:56:25.077Z,9.20
2023-01-12T08:58:51.680Z,9.30
2023-01-12T09:01:19.959Z,9.30
2023-01-12T09:03:48.429Z,9.40
2023-01-12T09:06:19.490Z,9.50
2023-01-12T09:08:46.437Z,9.50
2023-01-12T09:11:14.414Z,9.50
2023-01-12T09:13:41.342Z,9.50
2023-01-12T09:16:13.549Z,9.60
2023-01-12T09:18:41.302Z,9.50
2023-01-12T09:21:09.239Z,9.60
2023-01-12T09:23:36.150Z,9.50
2023-01-12T09:26:06.009Z,9.60
2023-01-12T09:28:33.272Z,9.50
2023-01-12T09:31:00.804Z,9.50
2023-01-12T09:33:27.613Z,9.50
2023-01-12T09:35:54.387Z,9.50
2023-01-12T09:38:21.213Z,9.40
2023-01-12T09:40:47.856Z,9.50
2023-01-12T09:43:34.002Z,9.50
2023-01-12T09:46:19.407Z,9.60
2023-01-12T09:48:46.076Z,9.60
2023-01-12T09:51:31.244Z,9.70
2023-01-12T09:53:58.004Z,9.70
2023-01-12T09:56:52.394Z,9.80
2023-01-12T09:59:34.903Z,9.80
2023-01-12T10:02:02.450Z,9.80
2023-01-12T10:04:29.453Z,9.80
2023-01-12T10:06:56.308Z,9.80
2023-01-12T10:09:23.299Z,9.90
2023-01-12T10:11:53.002Z,9.90
2023-01-12T10:14:38.825Z,10.00
2023-01-12T10:17:08.598Z,10.00
2023-01-12T10:19:54.127Z,10.00
2023-01-12T10:22:37.407Z,9.90
2023-01-12T10:25:24.661Z,10.00
2023-01-12T10:27:54.951Z,10.00
2023-01-12T10:30:24.746Z,10.00
2023-01-12T10:32:51.720Z,10.00
2023-01-12T10:35:19.908Z,10.00
2023-01-12T10:37:50.890Z,10.10
2023-01-12T10:40:20.373Z,10.10
2023-01-12T10:43:21.823Z,10.00
2023-01-12T10:46:03.545Z,10.00
2023-01-12T10:48:31.068Z,10.10
2023-01-12T10:50:59.053Z,10.10
2023-01-12T10:53:36.827Z,10.00
2023-01-12T10:56:14.789Z,10.00
2023-01-12T10:58:41.865Z,10.00
2023-01-12T11:01:08.679Z,10.10
2023-01-12T11:03:41.984Z,10.10
2023-01-12T11:06:24.180Z,10.10
2023-01-12T11:08:51.429Z,10.00
2023-01-12T11:11:21.152Z,10.00
2023-01-12T11:13:47.867Z,10.00
2023-01-12T11:16:18.151Z,10.00
2023-01-12T11:19:09.385Z,10.00
2023-01-12T11:21:38.016Z,10.10
2023-01-12T11:24:10.880Z,10.00
2023-01-12T11:26:43.914Z,10.10
2023-01-12T11:29:27.731Z,10.20
2023-01-12T11:31:56.841Z,10.10
2023-01-12T11:34:25.443Z,10.20
2023-01-12T11:36:54.267Z,10.20
2023-01-12T11:39:23.261Z,10.20
2023-01-12T11:42:09.685Z,10.20
2023-01-12T11:44:40.961Z,10.20
2023-01-12T11:47:14.713Z,10.20
2023-01-12T11:49:46.647Z,10.30
2023-01-12T11:52:15.476Z,10.20
2023-01-12T11:54:42.263Z,10.20
2023-01-12T11:57:24.067Z,10.20
2023-01-12T12:00:09.538Z,10.20
2023-01-12T12:02:51.237Z,10.20
2023-01-12T12:05:35.460Z,10.20
2023-01-12T12:08:22.353Z,10.20
2023-01-12T12:10:56.133Z,10.20
2023-01-12T12:13:28.774Z,10.20
2023-01-12T12:16:15.038Z,10.10
2023-01-12T12:18:41.803Z,10.20
2023-01-12T12:21:27.306Z,10.20
2023-01-12T12:24:01.885Z,10.10
2023-01-12T12:26:32.520Z,10.10
2023-01-12T12:28:59.177Z,10.00
2023-01-12T12:31:38.124Z,10.10
2023-01-12T12:34:37.530Z,10.10
2023-01-12T12:37:14.086Z,10.10
2023-01-12T12:39:49.111Z,10.10
2023-01-12T12:42:41.761Z,10.20
2023-01-12T12:45:21.623Z,10.10
2023-01-12T12:47:56.527Z,10.20
2023-01-12T12:50:26.143Z,10.20
2023-01-12T12:53:11.228Z,10.20
2023-01-12T12:55:38.003Z,10.20
2023-01-12T12:58:06.198Z,10.20
2023-01-12T13:00:42.604Z,10.20
2023-01-12T13:03:09.650Z,10.20
2023-01-12T13:05:39.699Z,10.20
2023-01-12T13:08:16.566Z,10.10
2023-01-12T13:10:48.589Z,10.20
2023-01-12T13:13:35.576Z,10.20
2023-01-12T13:16:20.653Z,10.20
2023-01-12T13:18:50.361Z,10.20
2023-01-12T13:21:37.227Z,10.20
2023-01-12T13:24:09.839Z,10.20
2023-01-12T13:26:41.211Z,10.20
2023-01-12T13:29:23.153Z,10.20
2023-01-12T13:31:50.576Z,10.20
2023-01-12T13:34:35.918Z,10.20
2023-01-12T13:37:21.587Z,10.20
2023-01-12T13:39:55.653Z,10.30
2023-01-12T13:42:41.078Z,10.30
2023-01-12T13:45:11.618Z,10.30
2023-01-12T13:47:38.308Z,10.40
2023-01-12T13:50:05.221Z,10.30
2023-01-12T13:52:33.896Z,10.30
2023-01-12T13:55:01.119Z,10.40
2023-01-12T13:57:28.903Z,10.40
2023-01-12T13:59:57.048Z,10.40
2023-01-12T14:02:24.091Z,10.50
2023-01-12T14:04:57.673Z,10.50
2023-01-12T14:07:40.479Z,10.50
2023-01-12T14:10:07.166Z,10.50
2023-01-12T14:12:40.013Z,10.50
2023-01-12T14:15:44.709Z,10.50
2023-01-12T14:18:13.228Z,10.50
2023-01-12T14:20:41.140Z,10.50
2023-01-12T14:23:24.711Z,10.50
2023-01-12T14:26:09.747Z,10.50
2023-01-12T14:28:37.376Z,10.50
2023-01-12T14:31:05.178Z,10.60
2023-01-12T14:33:32.927Z,10.50
2023-01-12T14:36:20.036Z,10.60
2023-01-12T14:38:46.758Z,10.50
2023-01-12T14:41:36.525Z,10.60
2023-01-12T14:44:22.253Z,10.50
2023-01-12T14:46:50.591Z,10.60
2023-01-12T14:49:19.937Z,10.60
2023-01-12T14:51:54.028Z,10.60
2023-01-12T14:54:25.746Z,10.60
2023-01-12T14:57:02.583Z,10.60
2023-01-12T14:59:33.840Z,10.60
2023-01-12T15:02:12.607Z,10.50
2023-01-12T15:04:58.506Z,10.60
2023-01-12T15:07:26.890Z,10.50
2023-01-12T15:09:58.090Z,10.60
2023-01-12T15:12:24.776Z,10.60
2023-01-12T15:14:51.353Z,10.70
2023-01-12T15:17:36.958Z,10.60
2023-01-12T15:20:22.292Z,10.60
2023-01-12T15:23:07.694Z,10.60
2023-01-12T15:25:37.686Z,10.60
2023-01-12T15:28:05.547Z,10.60
2023-01-12T15:30:33.637Z,10.60
2023-01-12T15:33:00.231Z,10.50
2023-01-12T15:35:28.179Z,10.50
2023-01-12T15:37:55.927Z,10.50
2023-01-12T15:40:23.346Z,10.50
2023-01-12T15:42:53.779Z,10.50
2023-01-12T15:45:29.812Z,10.50
2023-01-12T15:47:56.625Z,10.50
2023-01-12T15:50:23.779Z,10.50
2023-01-12T15:52:51.118Z,10.60
2023-01-12T15:55:19.361Z,10.50
2023-01-12T15:57:47.158Z,10.50
2023-01-12T16:00:15.157Z,10.50
2023-01-12T16:02:42.084Z,10.50
2023-01-12T16:05:10.237Z,10.50
2023-01-12T16:07:37.274Z,10.50
2023-01-12T16:10:04.516Z,10.60
2023-01-12T16:12:31.188Z,10.50
2023-01-12T16:14:58.770Z,10.50
2023-01-12T16:17:25.584Z,10.50
2023-01-12T16:19:52.248Z,10.50
2023-01-12T16:22:21.003Z,10.50
2023-01-12T16:24:48.503Z,10.50
2023-01-12T16:27:15.409Z,10.50
2023-01-12T16:29:42.086Z,10.50
2023-01-12T16:32:09.279Z,10.50
2023-01-12T16:34:36.438Z,10.50
2023-01-12T16:37:03.318Z,10.50
2023-01-12T16:39:30.529Z,10.50
2023-01-12T16:42:03.509Z,10.40
2023-01-12T16:44:31.441Z,10.40
2023-01-12T16:46:58.361Z,10.30
2023-01-12T16:49:24.986Z,10.30
2023-01-12T16:51:51.869Z,10.40
2023-01-12T16:54:19.953Z,10.40
2023-01-12T16:56:46.858Z,10.30
2023-01-12T16:59:13.633Z,10.30
2023-01-12T17:01:40.615Z,10.30
2023-01-12T17:04:07.431Z,10.30
2023-01-12T17:06:34.153Z,10.30
2023-01-12T17:09:01.145Z,10.30
2023-01-12T17:11:28.104Z,10.30
2023-01-12T17:13:55.820Z,10.30
2023-01-12T17:16:24.274Z,10.30
2023-01-12T17:18:51.384Z,10.40
2023-01-12T17:21:18.748Z,10.40
2023-01-12T17:23:46.397Z,10.40
2023-01-12T17:26:15.482Z,10.40
2023-01-12T17:28:42.352Z,10.40
2023-01-12T17:31:10.582Z,10.40
2023-01-12T17:33:38.000Z,10.30
2023-01-12T17:36:05.826Z,10.30
2023-01-12T17:38:33.187Z,10.40
2023-01-12T17:40:59.941Z,10.40
2023-01-12T17:43:26.882Z,10.40
2023-01-12T17:45:53.597Z,10.40
2023-01-12T17:48:20.410Z,10.40
2023-01-12T17:50:47.200Z,10.40
2023-01-12T17:53:14.582Z,10.40
2023-01-12T17:55:48.194Z,10.40
2023-01-12T17:58:18.440Z,10.50
2023-01-12T18:00:45.284Z,10.40
2023-01-12T18:03:12.017Z,10.40
2023-01-12T18:05:38.683Z,10.30
2023-01-12T18:08:06.323Z,10.40
2023-01-12T18:10:33.058Z,10.40
2023-01-12T18:12:59.734Z,10.40
2023-01-12T18:15:26.919Z,10.40
2023-01-12T18:17:53.634Z,10.50
2023-01-12T18:20:20.377Z,10.50
2023-01-12T18:22:47.204Z,10.50
2023-01-12T18:25:13.822Z,10.50
2023-01-12T18:27:40.479Z,10.50
2023-01-12T18:30:07.613Z,10.50
2023-01-12T18:32:34.370Z,10.50
2023-01-12T18:35:01.103Z,10.50
2023-01-12T18:37:27.819Z,10.60
2023-01-12T18:39:54.649Z,10.60
2023-01-12T18:42:40.263Z,10.60
2023-01-12T18:45:07.212Z,10.60
2023-01-12T18:47:52.863Z,10.60
2023-01-12T18:50:38.011Z,10.60
2023-01-12T18:53:30.634Z,10.70
2023-01-12T18:55:58.027Z,10.70
2023-01-12T18:58:28.863Z,10.70
2023-01-12T19:00:57.512Z,10.70
2023-01-12T19:03:24.484Z,10.70
2023-01-12T19:05:54.100Z,10.70
2023-01-12T19:08:39.871Z,10.70
2023-01-12T19:11:07.570Z,10.70
2023-01-12T19:13:52.907Z,10.60
2023-01-12T19:16:38.323Z,10.60
2023-01-12T19:19:05.377Z,10.60
2023-01-12T19:21:50.777Z,10.70
2023-01-12T19:24:35.920Z,10.70
2023-01-12T19:27:21.502Z,10.60
2023-01-12T19:29:48.241Z,10.60
2023-01-12T19:32:15.003Z,10.60
2023-01-12T19:34:41.647Z,10.60
2023-01-12T19:37:08.843Z,10.60
2023-01-12T19:39:46.516Z,10.60
2023-01-12T19:42:32.283Z,10.50
2023-01-12T19:44:59.402Z,10.60
2023-01-12T19:47:26.028Z,10.50
2023-01-12T19:49:52.768Z,10.50
2023-01-12T19:52:19.504Z,10.50
2023-01-12T19:54:46.450Z,10.50
2023-01-12T19:57:13.136Z,10.60
2023-01-12T19:59:39.953Z,10.50
2023-01-12T20:02:06.901Z,10.50
2023-01-12T20:04:34.366Z,10.50
2023-01-12T20:07:01.019Z,10.50
2023-01-12T20:09:27.772Z,10.60
2023-01-12T20:11:55.377Z,10.50
2023-01-12T20:14:22.145Z,10.50
2023-01-12T20:16:48.816Z,10.60
2023-01-12T20:19:15.520Z,10.60
2023-01-12T20:21:42.151Z,10.60
2023-01-12T20:24:08.916Z,10.60
2023-01-12T20:26:35.596Z,10.50
2023-01-12T20:29:02.589Z,10.50
2023-01-12T20:31:29.427Z,10.60
2023-01-12T20:33:56.110Z,10.60
2023-01-12T20:36:22.803Z,10.60
2023-01-12T20:38:51.221Z,10.60
2023-01-12T20:41:18.310Z,10.60
2023-01-12T20:43:45.337Z,10.60
2023-01-12T20:46:13.320Z,10.60
2023-01-12T20:48:40.845Z,10.70
2023-01-12T20:51:08.441Z,10.70
2023-01-12T20:53:35.279Z,10.70
2023-01-12T20:56:02.036Z,10.70
2023-01-12T20:58:28.765Z,10.70
2023-01-12T21:00:55.631Z,10.70
2023-01-12T21:03:22.699Z,10.70
2023-01-12T21:05:49.706Z,10.70
2023-01-12T21:08:16.749Z,10.70
2023-01-12T21:10:51.146Z,10.70
2023-01-12T21:13:18.256Z,10.70
2023-01-12T21:15:45.002Z,10.60
2023-01-12T21:18:11.941Z,10.60
2023-01-12T21:20:42.815Z,10.70
2023-01-12T21:23:09.741Z,10.60
2023-01-12T21:25:41.140Z,10.60
2023-01-12T21:28:07.803Z,10.50
2023-01-12T21:30:35.054Z,10.50
2023-01-12T21:33:01.763Z,10.40
2023-01-12T21:35:28.483Z,10.40
2023-01-12T21:37:55.145Z,10.40
2023-01-12T21:40:21.967Z,10.30
2023-01-12T21:43:07.489Z,10.30
2023-01-12T21:45:38.108Z,10.40
2023-01-12T21:48:05.163Z,10.40
2023-01-12T21:50:32.355Z,10.40
2023-01-12T21:52:59.638Z,10.40
2023-01-12T21:55:26.264Z,10.40
2023-01-12T21:57:54.115Z,10.30
2023-01-12T22:00:21.499Z,10.30
2023-01-12T22:02:50.151Z,10.30
2023-01-12T22:05:17.635Z,10.40
2023-01-12T22:07:44.727Z,10.30
2023-01-12T22:10:20.897Z,10.30
2023-01-12T22:12:48.716Z,10.30
2023-01-12T22:15:15.576Z,10.20
2023-01-12T22:17:42.721Z,10.20
2023-01-12T22:20:10.043Z,10.20
2023-01-12T22:22:38.640Z,10.20
2023-01-12T22:25:06.438Z,10.20
2023-01-12T22:27:33.504Z,10.20
2023-01-12T22:30:01.327Z,10.20
2023-01-12T22:32:29.125Z,10.20
2023-01-12T22:34:58.752Z,10.30
2023-01-12T22:37:26.539Z,10.30
2023-01-12T22:39:53.396Z,10.30
2023-01-12T22:42:20.619Z,10.20
2023-01-12T22:44:47.365Z,10.20
2023-01-12T22:47:14.083Z,10.20
2023-01-12T22:49:40.823Z,10.20
2023-01-12T22:52:07.870Z,10.30
2023-01-12T22:54:34.545Z,10.30
2023-01-12T22:57:01.617Z,10.30
2023-01-12T22:59:28.401Z,10.30
2023-01-12T23:01:55.984Z,10.40
2023-01-12T23:04:22.702Z,10.40
2023-01-12T23:06:49.441Z,10.40
2023-01-12T23:09:16.304Z,10.50
2023-01-12T23:11:42.948Z,10.50
2023-01-12T23:14:09.729Z,10.40
2023-01-12T23:16:36.389Z,10.50
2023-01-12T23:19:03.214Z,10.40
2023-01-12T23:21:29.885Z,10.40
2023-01-12T23:23:57.744Z,10.40
2023-01-12T23:26:25.596Z,10.30
2023-01-12T23:28:53.457Z,10.30
2023-01-12T23:31:21.443Z,10.30
2023-01-12T23:33:48.716Z,10.30
2023-01-12T23:36:16.984Z,10.20
2023-01-12T23:38:43.685Z,10.30
2023-01-12T23:41:11.311Z,10.30
2023-01-12T23:43:38.147Z,10.30
2023-01-12T23:46:05.395Z,10.30
2023-01-12T23:48:34.370Z,10.40
2023-01-12T23:51:01.171Z,10.30
2023-01-12T23:53:28.582Z,10.30
2023-01-12T23:55:56.506Z,10.30
2023-01-12T23:58:23.582Z,10.30
